Time;durP1;ratioP1;P1;durP2;ratioP2;P2;SDS_P1;SDS_P2;PMS_P1;PMS_P2;Temp;Humidity;BMP_temperature;BMP_pressure;BME280_temperature;BME280_humidity;BME280_pressure;Samples;Min_cycle;Max_cycle;Signal;HPM_P1;HPM_P2
2021/05/27 00:00:22;;;;;;;0.43;0.30;;;;;;;26.71;19.58;97965.72;5094676;28;20026;-92
2021/05/27 00:02:48;;;;;;;0.32;0.20;;;;;;;26.62;19.79;97965.63;5092814;28;20403;-91
2021/05/27 00:05:15;;;;;;;0.40;0.30;;;;;;;26.64;19.34;97973.63;5094309;28;20039;-91
2021/05/27 00:07:42;;;;;;;1.85;0.40;;;;;;;26.58;19.55;97967.75;5094555;28;20081;-92
2021/05/27 00:10:10;;;;;;;1.67;0.47;;;;;;;26.62;19.63;97970.47;5094016;28;20066;-91
2021/05/27 00:12:37;;;;;;;1.95;0.30;;;;;;;26.66;19.53;97966.28;5093996;28;20040;-91
2021/05/27 00:15:06;;;;;;;0.20;0.20;;;;;;;26.77;19.34;97970.81;5094130;28;20028;-91
2021/05/27 00:17:32;;;;;;;1.65;0.30;;;;;;;26.85;19.00;97967.28;5093744;28;20044;-91
2021/05/27 00:19:58;;;;;;;0.63;0.30;;;;;;;26.86;19.31;97973.72;5094139;28;20024;-91
2021/05/27 00:22:24;;;;;;;0.28;0.22;;;;;;;26.71;19.55;97977.00;5093907;28;20042;-92
2021/05/27 00:24:50;;;;;;;0.93;0.20;;;;;;;26.51;19.44;97975.69;5094242;28;20028;-92
2021/05/27 00:27:17;;;;;;;0.85;0.20;;;;;;;26.40;20.08;97972.41;5093766;28;20113;-92
2021/05/27 00:29:43;;;;;;;0.40;0.22;;;;;;;26.59;19.30;97971.38;5092864;28;20380;-92
2021/05/27 00:32:09;;;;;;;0.40;0.20;;;;;;;26.90;19.44;97980.78;5093511;28;20411;-92
2021/05/27 00:34:38;;;;;;;0.30;0.30;;;;;;;26.70;19.71;97966.94;5093828;28;20081;-91
2021/05/27 00:37:04;;;;;;;0.40;0.20;;;;;;;26.52;19.67;97983.66;5093366;28;20464;-91
2021/05/27 00:39:30;;;;;;;0.30;0.30;;;;;;;26.64;19.80;97982.88;5073485;28;20483;-91
2021/05/27 00:41:57;;;;;;;0.70;0.22;;;;;;;26.49;20.34;97978.16;5073493;28;20047;-91
2021/05/27 00:44:25;;;;;;;0.10;0.10;;;;;;;26.78;19.62;97981.63;5093068;28;20176;-91
2021/05/27 00:46:53;;;;;;;0.45;0.30;;;;;;;26.62;19.91;97985.34;5093336;28;20089;-91
2021/05/27 00:49:20;;;;;;;0.30;0.30;;;;;;;26.57;19.70;97987.94;5093897;28;20107;-91
2021/05/27 00:51:48;;;;;;;0.28;0.20;;;;;;;26.56;19.61;97980.72;5093329;28;20081;-92
2021/05/27 00:54:14;;;;;;;0.55;0.30;;;;;;;26.43;20.23;97975.13;5093574;28;20028;-92
2021/05/27 00:56:41;;;;;;;0.70;0.25;;;;;;;26.50;19.59;97986.16;5093707;28;20148;-92
2021/05/27 00:59:08;;;;;;;0.70;0.28;;;;;;;26.74;19.55;97975.28;5093396;28;20051;-91
2021/05/27 01:01:34;;;;;;;0.13;0.13;;;;;;;26.82;19.28;97982.28;5093461;28;20399;-91
2021/05/27 01:04:01;;;;;;;0.22;0.10;;;;;;;27.11;19.04;97974.41;5093707;28;20028;-91
2021/05/27 01:06:28;;;;;;;0.75;0.20;;;;;;;27.20;19.05;97976.50;5093476;28;20124;-91
2021/05/27 01:08:55;;;;;;;0.40;0.17;;;;;;;27.42;18.80;97973.72;5093676;28;20032;-92
2021/05/27 01:11:22;;;;;;;0.10;0.10;;;;;;;27.57;18.36;97974.75;5093256;28;20515;-92
2021/05/27 01:13:49;;;;;;;0.90;0.20;;;;;;;27.71;18.81;97975.00;5093340;28;20077;-92
2021/05/27 01:16:17;;;;;;;0.20;0.20;;;;;;;27.83;18.41;97970.53;5093067;28;20047;-92
2021/05/27 01:18:44;;;;;;;0.10;0.10;;;;;;;28.04;18.06;97975.38;5093235;28;20052;-92
2021/05/27 01:21:10;;;;;;;0.20;0.20;;;;;;;28.26;18.45;97978.13;5093237;28;20044;-92
2021/05/27 01:23:38;;;;;;;0.10;0.10;;;;;;;28.36;18.26;97971.25;5093122;28;20056;-93
2021/05/27 01:26:06;;;;;;;2.10;0.20;;;;;;;28.03;18.95;97977.41;5091921;28;20025;-92
2021/05/27 01:28:35;;;;;;;0.75;0.35;;;;;;;27.62;19.41;97971.34;5091993;28;20028;-92
2021/05/27 01:31:02;;;;;;;0.20;0.20;;;;;;;27.23;20.30;97975.59;5092835;28;20101;-92
2021/05/27 01:33:29;;;;;;;0.15;0.10;;;;;;;27.31;19.91;97976.91;5092925;28;20035;-92
2021/05/27 01:35:56;;;;;;;0.63;0.22;;;;;;;26.88;20.10;97979.69;5090907;28;20123;-92
2021/05/27 01:38:25;;;;;;;0.30;0.10;;;;;;;27.06;19.78;97977.81;5072908;28;20442;-91
2021/05/27 01:40:54;;;;;;;0.35;0.20;;;;;;;27.41;19.60;97987.03;5072930;28;20047;-91
2021/05/27 01:43:22;;;;;;;1.45;0.75;;;;;;;27.47;19.66;97973.16;5072840;28;20369;-91
2021/05/27 01:45:48;;;;;;;1.40;0.10;;;;;;;27.71;19.12;97983.47;5072829;28;20024;-91
2021/05/27 01:48:15;;;;;;;0.60;0.20;;;;;;;27.95;19.17;97980.94;5076616;28;20126;-92
2021/05/27 01:50:43;;;;;;;0.20;0.20;;;;;;;28.08;19.06;97990.13;5090468;28;20028;-92
2021/05/27 01:53:09;;;;;;;1.00;0.10;;;;;;;28.22;19.14;97989.56;5090207;28;20042;-92
2021/05/27 01:55:41;;;;;;;0.10;0.10;;;;;;;28.29;18.00;97980.78;5092864;28;20034;-91
2021/05/27 01:58:08;;;;;;;0.20;0.20;;;;;;;28.25;19.96;97988.63;5092944;28;20111;-91
2021/05/27 02:00:34;;;;;;;0.45;0.20;;;;;;;28.07;19.81;97991.38;5092665;28;20028;-91
2021/05/27 02:03:00;;;;;;;0.15;0.15;;;;;;;28.02;19.91;97989.16;5092893;28;20063;-91
2021/05/27 02:05:26;;;;;;;0.57;0.30;;;;;;;28.05;19.44;97991.06;5093522;28;20032;-91
2021/05/27 02:07:52;;;;;;;2.20;0.20;;;;;;;28.23;18.49;97993.97;5096417;28;20448;-91
2021/05/27 02:10:18;;;;;;;0.73;0.20;;;;;;;28.25;18.19;97994.28;5096777;28;20029;-91
2021/05/27 02:12:44;;;;;;;0.93;0.20;;;;;;;28.34;18.29;98002.00;5096386;28;20032;-92
2021/05/27 02:15:11;;;;;;;0.45;0.22;;;;;;;28.21;18.74;98007.75;5094947;28;20040;-92
2021/05/27 02:17:38;;;;;;;0.30;0.20;;;;;;;28.03;19.11;97997.16;5096462;28;20488;-91
2021/05/27 02:20:07;;;;;;;0.20;0.20;;;;;;;27.84;19.56;98001.09;5096445;28;20081;-92
2021/05/27 02:22:33;;;;;;;0.30;0.13;;;;;;;27.74;19.85;98002.31;5096305;28;20024;-92
2021/05/27 02:25:00;;;;;;;0.30;0.20;;;;;;;27.80;19.76;98003.28;5096124;28;20405;-92
2021/05/27 02:27:28;;;;;;;0.13;0.10;;;;;;;27.82;19.46;98005.66;5096245;28;20032;-92
2021/05/27 02:29:54;;;;;;;0.10;0.10;;;;;;;27.73;19.35;97994.28;5095981;28;20036;-92
2021/05/27 02:32:20;;;;;;;0.10;0.10;;;;;;;27.67;19.16;98008.22;5096027;28;20330;-92
2021/05/27 02:34:46;;;;;;;0.17;0.10;;;;;;;27.90;18.57;98007.72;5093659;28;20024;-92
2021/05/27 02:37:12;;;;;;;0.30;0.10;;;;;;;27.94;18.78;98002.72;5076104;28;20067;-92
2021/05/27 02:39:39;;;;;;;0.57;0.20;;;;;;;28.18;18.72;98000.22;5076076;28;20033;-92
2021/05/27 02:42:05;;;;;;;0.20;0.10;;;;;;;28.43;19.03;98002.81;5084269;28;20024;-91
2021/05/27 02:44:31;;;;;;;0.60;0.10;;;;;;;28.52;19.23;98002.06;5095628;28;20032;-92
2021/05/27 02:46:58;;;;;;;0.35;0.10;;;;;;;28.55;18.67;97998.28;5096110;28;20032;-91
2021/05/27 02:49:24;;;;;;;0.30;0.20;;;;;;;28.60;18.18;97995.69;5095744;28;20468;-91
2021/05/27 02:51:50;;;;;;;0.10;0.10;;;;;;;28.50;18.35;97996.88;5095705;28;20035;-91
2021/05/27 02:54:17;;;;;;;1.63;0.20;;;;;;;28.61;17.82;97996.47;5095647;28;20028;-92
2021/05/27 02:56:43;;;;;;;0.10;0.00;;;;;;;28.74;18.76;98006.41;5095590;28;20032;-92
2021/05/27 02:59:09;;;;;;;0.30;0.17;;;;;;;28.67;19.26;98000.25;5095435;28;20043;-93
2021/05/27 03:01:35;;;;;;;0.10;0.10;;;;;;;28.36;19.51;98011.56;5095586;28;20032;-92
2021/05/27 03:04:01;;;;;;;0.10;0.10;;;;;;;28.58;18.58;98012.28;5095533;28;20065;-92
2021/05/27 03:06:28;;;;;;;0.10;0.10;;;;;;;28.70;17.83;98011.41;5095493;28;20089;-92
2021/05/27 03:08:54;;;;;;;0.77;0.20;;;;;;;28.64;18.72;98013.28;5095409;28;20036;-92
2021/05/27 03:11:21;;;;;;;0.17;0.10;;;;;;;28.45;18.72;98017.25;5095055;28;20038;-92
2021/05/27 03:13:47;;;;;;;0.10;0.10;;;;;;;28.39;18.73;98015.50;5095872;28;20040;-92
2021/05/27 03:16:13;;;;;;;0.20;0.10;;;;;;;28.10;19.01;98018.66;5094715;28;20034;-92
2021/05/27 03:18:40;;;;;;;0.22;0.10;;;;;;;28.06;19.17;98018.03;5094980;28;20127;-93
2021/05/27 03:21:06;;;;;;;0.10;0.10;;;;;;;28.17;19.17;98023.28;5095103;28;20052;-92
2021/05/27 03:23:33;;;;;;;0.13;0.13;;;;;;;28.14;19.13;98027.81;5094987;28;20052;-93
2021/05/27 03:25:59;;;;;;;0.30;0.10;;;;;;;28.15;19.33;98028.56;5094775;28;20491;-92
2021/05/27 03:28:25;;;;;;;0.00;0.00;;;;;;;28.60;19.22;98032.41;5095065;28;20102;-92
2021/05/27 03:30:51;;;;;;;0.47;0.10;;;;;;;28.60;19.18;98037.28;5095275;28;20024;-92
2021/05/27 03:33:18;;;;;;;0.10;0.10;;;;;;;28.56;19.78;98036.59;5093115;28;20036;-92
2021/05/27 03:35:44;;;;;;;0.08;0.08;;;;;;;28.77;19.44;98038.59;5074644;28;20510;-92
2021/05/27 03:38:11;;;;;;;0.65;0.10;;;;;;;28.73;19.45;98035.09;5074593;28;20487;-91
2021/05/27 03:40:37;;;;;;;0.20;0.10;;;;;;;28.36;20.60;98037.00;5074348;28;20046;-92
2021/05/27 03:43:03;;;;;;;0.35;0.10;;;;;;;28.73;19.05;98047.19;5074497;28;20154;-91
2021/05/27 03:45:32;;;;;;;0.22;0.10;;;;;;;28.64;20.43;98038.69;5074387;28;20032;-92
2021/05/27 03:47:58;;;;;;;0.10;0.05;;;;;;;28.65;19.50;98042.31;5074326;28;20022;-92
2021/05/27 03:50:27;;;;;;;0.38;0.10;;;;;;;28.60;19.83;98051.41;5085660;28;20043;-92
2021/05/27 03:52:53;;;;;;;0.10;0.10;;;;;;;28.87;19.69;98051.47;5094864;28;20414;-92
2021/05/27 03:55:21;;;;;;;0.43;0.10;;;;;;;28.97;18.85;98055.91;5094120;28;20502;-92
2021/05/27 03:57:48;;;;;;;0.25;0.13;;;;;;;28.89;19.86;98049.00;5094366;28;20438;-92
2021/05/27 04:03:03;;;;;;;0.15;0.10;;;;;;;29.01;19.50;98053.69;5094594;28;20063;-91
2021/05/27 04:08:14;;;;;;;0.35;0.20;;;;;;;29.81;18.32;98050.63;5093441;28;20047;-92
2021/05/27 04:10:40;;;;;;;0.20;0.10;;;;;;;30.13;19.21;98052.75;5093859;28;20049;-92
2021/05/27 04:13:06;;;;;;;0.10;0.10;;;;;;;30.26;19.41;98055.41;5094432;28;20036;-92
2021/05/27 04:15:35;;;;;;;0.00;0.00;;;;;;;30.11;19.76;98055.28;5094764;28;20039;-92
2021/05/27 04:18:06;;;;;;;0.10;0.10;;;;;;;30.08;19.70;98048.53;5093799;28;20507;-91
2021/05/27 04:20:36;;;;;;;1.75;0.10;;;;;;;30.12;20.91;98054.03;5094201;28;20028;-92
2021/05/27 04:23:05;;;;;;;0.10;0.10;;;;;;;29.83;20.89;98046.06;5093843;28;20020;-92
2021/05/27 04:25:31;;;;;;;0.50;0.10;;;;;;;29.49;21.30;98049.22;5093487;28;20495;-92
2021/05/27 04:27:59;;;;;;;1.45;0.08;;;;;;;29.52;20.94;98045.47;5093660;28;20036;-91
2021/05/27 04:30:26;;;;;;;0.00;0.00;;;;;;;29.86;20.98;98044.34;5094204;28;20109;-92
2021/05/27 04:33:04;;;;;;;0.43;0.10;;;;;;;30.12;20.57;98050.41;5085590;28;20032;-91
2021/05/27 04:35:37;;;;;;;0.65;0.10;;;;;;;30.13;21.04;98049.94;5073589;28;20094;-91
2021/05/27 04:38:06;;;;;;;0.08;0.00;;;;;;;29.96;21.74;98049.53;5073877;28;20025;-91
2021/05/27 04:40:33;;;;;;;0.10;0.10;;;;;;;29.85;21.94;98039.97;5085932;28;20028;-92
2021/05/27 04:42:59;;;;;;;0.03;0.03;;;;;;;29.92;21.65;98046.06;5093080;28;20110;-91
2021/05/27 04:45:25;;;;;;;0.52;0.15;;;;;;;30.16;21.15;98048.19;5093653;28;20020;-91
2021/05/27 04:47:52;;;;;;;0.25;0.10;;;;;;;30.38;21.21;98049.59;5093607;28;20047;-92
2021/05/27 04:50:21;;;;;;;0.20;0.20;;;;;;;30.38;21.31;98041.09;5093596;28;20032;-91
2021/05/27 04:52:48;;;;;;;0.40;0.28;;;;;;;30.01;21.55;98036.78;5093531;28;20048;-92
2021/05/27 04:55:15;;;;;;;0.57;0.30;;;;;;;29.87;21.87;98041.03;5093438;28;20024;-92
2021/05/27 04:57:41;;;;;;;0.13;0.10;;;;;;;29.87;22.32;98041.03;5093339;28;20036;-92
2021/05/27 05:00:13;;;;;;;0.10;0.08;;;;;;;29.84;22.20;98047.66;5093872;28;20032;-91
2021/05/27 05:02:40;;;;;;;0.20;0.20;;;;;;;30.01;21.91;98039.59;5093757;28;20032;-92
2021/05/27 05:05:08;;;;;;;0.32;0.20;;;;;;;30.05;21.96;98035.34;5093434;28;20024;-92
2021/05/27 05:07:34;;;;;;;0.90;0.30;;;;;;;30.10;21.82;98039.56;5093461;28;20028;-91
2021/05/27 05:10:00;;;;;;;0.17;0.13;;;;;;;30.12;22.36;98037.06;5093380;28;20032;-92
2021/05/27 05:12:27;;;;;;;0.35;0.10;;;;;;;30.38;21.60;98037.47;5093259;28;20077;-92
2021/05/27 05:14:53;;;;;;;0.60;0.20;;;;;;;30.68;21.02;98036.38;5093162;28;20103;-92
2021/05/27 05:17:19;;;;;;;0.10;0.10;;;;;;;30.89;20.33;98037.38;5093425;28;20066;-92
2021/05/27 05:19:45;;;;;;;0.10;0.10;;;;;;;31.18;20.42;98032.63;5093074;28;20449;-93
2021/05/27 05:22:11;;;;;;;1.35;0.22;;;;;;;31.18;21.30;98029.00;5092958;28;20124;-92
2021/05/27 05:24:37;;;;;;;0.20;0.17;;;;;;;31.34;21.11;98031.41;5092023;28;20035;-92
2021/05/27 05:27:04;;;;;;;0.20;0.20;;;;;;;31.39;20.20;98039.25;5093205;28;20036;-92
2021/05/27 05:29:30;;;;;;;0.70;0.10;;;;;;;31.84;19.83;98038.06;5093510;28;20020;-93
2021/05/27 05:31:56;;;;;;;0.10;0.10;;;;;;;32.17;18.96;98038.69;5089826;28;20068;-93
2021/05/27 05:34:22;;;;;;;0.15;0.10;;;;;;;32.33;18.82;98046.72;5092145;28;20388;-92
2021/05/27 05:36:48;;;;;;;0.70;0.10;;;;;;;32.41;18.39;98044.28;5093450;28;20036;-93
2021/05/27 05:39:14;;;;;;;0.20;0.10;;;;;;;32.72;18.06;98041.69;5091814;28;20421;-93
2021/05/27 05:41:41;;;;;;;0.47;0.20;;;;;;;33.02;18.82;98051.72;5096878;28;20028;-93
2021/05/27 05:44:07;;;;;;;0.63;0.20;;;;;;;33.28;18.67;98051.81;5096992;28;20024;-93
2021/05/27 05:46:34;;;;;;;0.63;0.20;;;;;;;33.46;18.03;98053.56;5097142;28;20032;-92
2021/05/27 05:49:00;;;;;;;1.00;0.28;;;;;;;33.75;18.72;98051.34;5096940;28;20039;-92
2021/05/27 05:51:26;;;;;;;1.20;0.20;;;;;;;34.02;18.46;98059.44;5097394;28;20028;-95
2021/05/27 05:53:52;;;;;;;0.28;0.20;;;;;;;34.36;18.70;98062.59;5096898;28;20626;-95
2021/05/27 05:56:18;;;;;;;0.10;0.10;;;;;;;34.55;16.89;98058.91;5096654;28;20054;-95
2021/05/27 05:58:44;;;;;;;0.68;0.20;;;;;;;34.70;17.12;98053.06;5096713;28;20376;-96
2021/05/27 06:01:10;;;;;;;0.70;0.20;;;;;;;34.68;16.33;98059.25;5096811;28;20450;-95
2021/05/27 06:03:36;;;;;;;0.38;0.20;;;;;;;34.46;16.85;98058.28;5096717;28;20063;-96
2021/05/27 06:06:02;;;;;;;0.20;0.10;;;;;;;33.93;17.26;98058.81;5096778;28;20028;-94
2021/05/27 06:08:28;;;;;;;0.25;0.17;;;;;;;33.57;17.19;98053.72;5096582;28;20028;-96
2021/05/27 06:10:55;;;;;;;0.98;0.20;;;;;;;33.38;17.20;98051.16;5096737;28;20066;-95
2021/05/27 06:13:21;;;;;;;0.10;0.10;;;;;;;33.23;17.52;98053.31;5096765;28;20115;-95
2021/05/27 06:15:47;;;;;;;0.47;0.22;;;;;;;33.55;17.32;98053.47;5096456;28;20032;-96
2021/05/27 06:18:15;;;;;;;0.10;0.10;;;;;;;33.65;16.71;98049.19;5096178;28;20040;-93
2021/05/27 06:20:41;;;;;;;0.20;0.20;;;;;;;33.84;17.16;98045.50;5096217;28;20028;-95
2021/05/27 06:23:08;;;;;;;0.15;0.15;;;;;;;32.99;17.06;98049.84;5096414;28;20393;-95
2021/05/27 06:25:34;;;;;;;0.30;0.20;;;;;;;33.20;17.45;98047.81;5096115;28;20503;-95
2021/05/27 06:28:00;;;;;;;0.10;0.10;;;;;;;32.56;17.95;98054.34;5096456;28;20020;-95
2021/05/27 06:30:28;;;;;;;0.10;0.10;;;;;;;32.78;17.90;98055.97;5087140;28;20025;-95
2021/05/27 06:32:54;;;;;;;0.17;0.10;;;;;;;32.08;17.77;98048.13;5076044;28;20037;-95
2021/05/27 06:35:21;;;;;;;0.13;0.10;;;;;;;31.95;17.97;98058.94;5075579;28;20031;-94
2021/05/27 06:37:47;;;;;;;0.17;0.10;;;;;;;32.02;18.87;98057.81;5075812;28;20606;-95
2021/05/27 06:40:21;;;;;;;0.30;0.20;;;;;;;32.78;18.34;98055.97;5085563;28;20036;-96
2021/05/27 06:42:48;;;;;;;1.40;0.00;;;;;;;33.04;18.21;98062.59;5094652;28;20457;-96
2021/05/27 06:45:15;;;;;;;0.80;0.20;;;;;;;32.98;17.60;98062.50;5096220;28;20024;-95
2021/05/27 06:47:42;;;;;;;0.40;0.30;;;;;;;33.10;17.32;98072.78;5095804;28;20510;-95
2021/05/27 06:50:09;;;;;;;0.13;0.10;;;;;;;32.67;17.45;98068.00;5095622;28;20035;-96
2021/05/27 06:52:36;;;;;;;0.22;0.20;;;;;;;32.54;18.09;98076.03;5095712;28;20480;-96
2021/05/27 06:55:03;;;;;;;0.20;0.20;;;;;;;31.28;18.18;98070.22;5096628;28;20031;-96
2021/05/27 06:57:29;;;;;;;1.55;0.10;;;;;;;30.46;19.30;98078.34;5096304;28;20093;-96
2021/05/27 06:59:55;;;;;;;1.30;0.20;;;;;;;30.46;19.71;98076.31;5095784;28;20066;-95
2021/05/27 07:02:22;;;;;;;2.13;0.22;;;;;;;29.94;19.80;98079.56;5096525;28;20078;-96
2021/05/27 07:04:48;;;;;;;0.20;0.20;;;;;;;30.11;19.73;98077.94;5095679;28;20544;-96
2021/05/27 07:07:14;;;;;;;0.25;0.20;;;;;;;30.73;20.48;98081.88;5096082;28;20039;-96
2021/05/27 07:09:40;;;;;;;1.65;0.28;;;;;;;30.91;19.26;98078.19;5097664;28;20383;-96
2021/05/27 07:12:07;;;;;;;0.45;0.20;;;;;;;30.73;19.66;98086.75;5096156;28;20566;-95
2021/05/27 07:14:34;;;;;;;0.10;0.10;;;;;;;31.13;19.68;98070.19;5096713;28;20028;-96
2021/05/27 07:17:01;;;;;;;0.28;0.20;;;;;;;31.71;18.54;98063.13;5096866;28;20554;-96
2021/05/27 07:19:27;;;;;;;1.08;0.10;;;;;;;31.87;17.72;98069.13;5096649;28;20039;-96
2021/05/27 07:21:53;;;;;;;0.65;0.45;;;;;;;32.19;18.92;98072.28;5095159;28;20036;-96
2021/05/27 07:24:20;;;;;;;0.38;0.20;;;;;;;30.70;20.06;98070.69;5096084;28;20020;-96
2021/05/27 07:26:46;;;;;;;0.20;0.20;;;;;;;31.01;19.45;98073.25;5095451;28;20086;-95
2021/05/27 07:29:12;;;;;;;0.15;0.10;;;;;;;30.42;19.60;98084.19;5085533;28;20066;-96
2021/05/27 07:31:38;;;;;;;1.52;0.40;;;;;;;31.56;19.34;98073.66;5086778;28;20503;-96
2021/05/27 07:34:06;;;;;;;0.20;0.20;;;;;;;31.35;19.01;98070.63;5105141;28;20024;-96
2021/05/27 07:36:33;;;;;;;1.13;0.57;;;;;;;32.20;18.46;98080.34;5108285;28;20058;-96
2021/05/27 07:38:59;;;;;;;0.20;0.10;;;;;;;32.07;17.86;98092.00;5099719;28;20085;-96
2021/05/27 07:41:25;;;;;;;0.30;0.20;;;;;;;31.04;17.74;98075.88;5102575;28;20028;-96
2021/05/27 07:43:52;;;;;;;0.20;0.20;;;;;;;31.02;18.24;98072.75;5101430;28;20044;-96
2021/05/27 07:46:20;;;;;;;0.10;0.10;;;;;;;30.37;19.42;98089.72;5097609;28;20111;-96
2021/05/27 07:48:46;;;;;;;0.10;0.10;;;;;;;29.33;20.73;98083.47;5098583;28;20032;-96
2021/05/27 07:51:12;;;;;;;0.40;0.10;;;;;;;29.40;19.97;98086.00;5099702;28;20107;-96
2021/05/27 07:53:38;;;;;;;0.20;0.10;;;;;;;29.40;21.22;98075.47;5104457;28;20024;-96
2021/05/27 07:56:05;;;;;;;0.05;0.05;;;;;;;28.74;21.47;98077.03;5109662;28;20028;-96
2021/05/27 07:58:32;;;;;;;0.10;0.10;;;;;;;29.14;21.64;98084.69;5100143;28;20030;-95
2021/05/27 08:00:58;;;;;;;2.03;0.17;;;;;;;28.89;21.13;98094.22;5097591;28;20114;-95
2021/05/27 08:03:24;;;;;;;0.20;0.10;;;;;;;29.14;21.06;98091.13;5096457;28;20054;-95
2021/05/27 08:05:50;;;;;;;2.75;0.30;;;;;;;29.95;21.48;98087.59;5098945;28;20062;-96
2021/05/27 08:08:16;;;;;;;2.65;0.43;;;;;;;30.60;20.93;98084.13;5099365;28;20134;-96
2021/05/27 08:10:44;;;;;;;0.10;0.10;;;;;;;29.33;21.60;98089.94;5102614;28;20019;-96
2021/05/27 08:13:11;;;;;;;0.43;0.22;;;;;;;29.73;20.19;98086.97;5101288;28;20032;-95
2021/05/27 08:15:37;;;;;;;0.45;0.35;;;;;;;30.31;22.03;98088.75;5095915;28;20376;-96
2021/05/27 08:18:04;;;;;;;2.63;0.20;;;;;;;30.57;20.82;98085.06;5095265;28;20511;-96
2021/05/27 08:20:30;;;;;;;0.45;0.10;;;;;;;29.35;21.96;98090.25;5099581;28;20024;-96
2021/05/27 08:22:56;;;;;;;0.40;0.10;;;;;;;29.43;21.93;98091.50;5101983;28;20062;-96
2021/05/27 08:25:22;;;;;;;0.43;0.15;;;;;;;28.49;22.61;98096.22;5108543;28;20092;-96
2021/05/27 08:27:48;;;;;;;0.13;0.13;;;;;;;28.92;22.47;98092.47;5100225;28;20039;-96
2021/05/27 08:30:15;;;;;;;0.40;0.20;;;;;;;29.35;22.08;98093.06;5099913;28;20040;-96
2021/05/27 08:32:41;;;;;;;0.13;0.10;;;;;;;28.98;23.37;98090.63;5102964;28;20565;-96
2021/05/27 08:35:08;;;;;;;0.20;0.10;;;;;;;30.06;20.94;98098.41;5098154;28;20024;-96
2021/05/27 08:37:34;;;;;;;0.77;0.20;;;;;;;29.42;21.29;98092.75;5096744;28;20039;-96
2021/05/27 08:40:00;;;;;;;0.17;0.17;;;;;;;29.29;21.98;98103.41;5095200;28;20028;-96
2021/05/27 08:42:27;;;;;;;0.63;0.20;;;;;;;29.30;22.11;98098.56;5100410;28;20028;-96
2021/05/27 08:44:56;;;;;;;0.30;0.20;;;;;;;28.90;21.91;98090.13;5102156;28;20089;-96
2021/05/27 08:47:23;;;;;;;0.47;0.10;;;;;;;29.47;21.70;98091.34;5099500;28;20100;-96
2021/05/27 08:49:50;;;;;;;0.20;0.10;;;;;;;29.73;20.64;98086.97;5100432;28;20028;-95
2021/05/27 08:52:17;;;;;;;0.20;0.10;;;;;;;29.70;21.87;98092.75;5095750;28;20119;-95
2021/05/27 08:54:43;;;;;;;0.10;0.10;;;;;;;29.93;20.22;98089.31;5094150;28;20090;-95
2021/05/27 08:57:09;;;;;;;0.30;0.20;;;;;;;30.52;20.37;98097.06;5094963;28;20027;-95
2021/05/27 08:59:36;;;;;;;0.15;0.10;;;;;;;31.19;20.29;98096.59;5093493;28;20054;-95
2021/05/27 09:02:12;;;;;;;0.10;0.10;;;;;;;31.15;18.22;98089.53;5097353;28;20082;-96
2021/05/27 09:04:39;;;;;;;0.40;0.10;;;;;;;30.31;21.10;98100.09;5096879;28;20028;-96
2021/05/27 09:07:06;;;;;;;0.10;0.10;;;;;;;29.35;21.75;98098.72;5096664;28;20434;-94
2021/05/27 09:09:55;;;;;;;0.10;0.10;;;;;;;29.79;21.59;98087.13;5095242;28;20085;-96
2021/05/27 09:12:33;;;;;;;0.10;0.10;;;;;;;29.36;21.69;98091.81;5097905;28;20472;-91
2021/05/27 09:15:01;;;;;;;0.40;0.20;;;;;;;29.36;21.19;98096.66;5094180;28;20052;-94
2021/05/27 09:17:41;;;;;;;0.17;0.10;;;;;;;29.72;21.27;98081.75;5097725;28;20122;-91
2021/05/27 09:20:26;;;;;;;1.33;0.13;;;;;;;30.15;21.03;98089.91;5098055;28;20082;-94
2021/05/27 09:23:25;;;;;;;0.82;0.20;;;;;;;30.82;19.88;98092.38;5097466;28;20103;-92
2021/05/27 09:26:03;;;;;;;0.30;0.20;;;;;;;30.87;18.94;98096.59;5062155;28;20044;-94
2021/05/27 09:28:29;;;;;;;0.52;0.20;;;;;;;30.50;19.32;98101.66;5087489;28;20127;-92
2021/05/27 09:30:58;;;;;;;0.00;0.00;;;;;;;30.03;18.81;98103.00;5097420;28;20115;-93
2021/05/27 09:33:37;;;;;;;0.47;0.13;;;;;;;30.00;19.75;98106.78;5097202;28;20032;-94
2021/05/27 09:36:12;;;;;;;0.35;0.20;;;;;;;30.55;20.12;98098.16;5097495;28;20028;-92
2021/05/27 09:38:45;;;;;;;0.10;0.10;;;;;;;31.17;18.25;98099.16;5095954;28;20124;-94
2021/05/27 09:41:27;;;;;;;0.10;0.10;;;;;;;31.05;18.79;98103.00;5097981;28;20383;-93
2021/05/27 09:44:15;;;;;;;0.10;0.10;;;;;;;30.72;19.09;98114.31;5096921;28;20051;-93
2021/05/27 09:46:49;;;;;;;0.00;0.00;;;;;;;30.36;19.39;98103.13;5096563;28;20373;-93
2021/05/27 09:49:16;;;;;;;0.10;0.10;;;;;;;29.80;19.91;98103.63;5097346;28;20039;-95
2021/05/27 09:51:42;;;;;;;0.90;0.20;;;;;;;30.96;19.38;98103.03;5097130;28;20028;-93
2021/05/27 09:54:08;;;;;;;0.20;0.20;;;;;;;31.06;18.48;98098.13;5097172;28;20036;-94
2021/05/27 09:56:38;;;;;;;0.20;0.10;;;;;;;30.86;18.87;98112.81;5096861;28;20032;-94
2021/05/27 09:59:05;;;;;;;0.22;0.20;;;;;;;30.86;18.54;98112.03;5096567;28;20482;-95
2021/05/27 10:01:32;;;;;;;0.25;0.20;;;;;;;30.35;19.35;98114.91;5095500;28;20081;-94
2021/05/27 10:04:18;;;;;;;0.20;0.20;;;;;;;30.79;19.36;98118.84;5096816;28;20028;-96
2021/05/27 10:06:45;;;;;;;0.55;0.10;;;;;;;30.45;19.33;98113.63;5096654;28;20036;-95
2021/05/27 10:09:11;;;;;;;0.30;0.13;;;;;;;30.45;19.31;98108.75;5096976;28;20032;-94
2021/05/27 10:11:39;;;;;;;0.22;0.10;;;;;;;30.24;20.31;98109.72;5096421;28;20115;-95
2021/05/27 10:14:07;;;;;;;0.80;0.30;;;;;;;30.11;20.34;98108.34;5096351;28;20114;-94
2021/05/27 10:16:36;;;;;;;0.22;0.10;;;;;;;29.48;21.52;98109.88;5095328;28;20479;-90
2021/05/27 10:19:04;;;;;;;1.50;0.10;;;;;;;28.95;22.43;98106.47;5095211;28;20044;-92
2021/05/27 10:21:30;;;;;;;0.55;0.20;;;;;;;29.15;21.42;98106.81;5096142;28;20472;-93
2021/05/27 10:23:59;;;;;;;0.13;0.10;;;;;;;29.09;21.96;98094.56;5096332;28;20039;-90
2021/05/27 10:26:25;;;;;;;0.50;0.20;;;;;;;29.40;21.79;98123.56;5077950;28;20032;-94
2021/05/27 10:28:53;;;;;;;0.40;0.17;;;;;;;29.68;21.58;98113.06;5089714;28;20081;-96
2021/05/27 10:31:25;;;;;;;0.85;0.20;;;;;;;31.47;19.96;98108.59;5096346;28;20031;-94
2021/05/27 10:33:52;;;;;;;0.35;0.20;;;;;;;31.64;19.74;98112.56;5096145;28;20480;-94
2021/05/27 10:36:18;;;;;;;0.50;0.22;;;;;;;30.91;20.34;98088.72;5096195;28;20079;-93
2021/05/27 10:38:49;;;;;;;0.28;0.17;;;;;;;31.67;19.30;98099.44;5095891;28;20024;-93
2021/05/27 10:41:19;;;;;;;0.28;0.10;;;;;;;32.38;18.97;98099.25;5094535;28;20035;-93
2021/05/27 10:44:04;;;;;;;;;;;;;;;32.45;18.76;98096.81;5096360;28;20028;-94
2021/05/27 10:46:43;;;;;;;0.15;0.15;;;;;;;30.88;19.42;98106.69;5096161;28;20014;-92
2021/05/27 10:49:09;;;;;;;0.00;0.00;;;;;;;30.75;20.51;98095.56;5096182;28;20032;-93
2021/05/27 10:51:44;;;;;;;0.30;0.13;;;;;;;31.05;20.11;98090.84;5096049;28;20111;-93
2021/05/27 10:54:15;;;;;;;0.17;0.10;;;;;;;31.94;19.54;98094.31;5095895;28;20107;-92
2021/05/27 10:56:46;;;;;;;;;;;;;;;31.51;18.37;98097.06;5095849;28;20028;-94
2021/05/27 10:59:15;;;;;;;0.13;0.13;;;;;;;31.44;19.15;98089.69;5095586;28;19995;-93
2021/05/27 11:01:43;;;;;;;0.20;0.20;;;;;;;31.80;19.40;98100.75;5095649;28;20039;-93
2021/05/27 11:04:23;;;;;;;0.55;0.20;;;;;;;31.61;18.15;98107.84;5095796;28;20028;-91
2021/05/27 11:07:08;;;;;;;0.10;0.10;;;;;;;32.43;18.86;98105.03;5095771;28;20039;-92
2021/05/27 11:09:37;;;;;;;0.20;0.20;;;;;;;31.63;19.39;98105.31;5095696;28;20051;-93
2021/05/27 11:12:13;;;;;;;0.20;0.10;;;;;;;32.86;18.12;98111.94;5095289;28;20043;-92
2021/05/27 11:15:03;;;;;;;0.25;0.10;;;;;;;33.45;17.43;98095.50;5095650;28;20081;-94
2021/05/27 11:17:29;;;;;;;1.55;0.20;;;;;;;32.33;18.95;98094.25;5095339;28;20032;-93
2021/05/27 11:20:10;;;;;;;1.15;0.20;;;;;;;31.92;18.74;98113.91;5095225;28;20058;-92
2021/05/27 11:22:48;;;;;;;;;;;;;;;32.32;19.07;98095.53;5095581;28;20387;-92
2021/05/27 11:25:24;;;;;;;0.10;0.10;;;;;;;33.13;19.02;98103.09;5076445;28;19916;-94
2021/05/27 11:27:52;;;;;;;0.10;0.10;;;;;;;32.86;18.33;98099.81;5075210;28;20078;-93
2021/05/27 11:30:40;;;;;;;1.08;0.30;;;;;;;31.73;19.47;98109.66;5093676;28;20039;-93
2021/05/27 11:33:12;;;;;;;0.20;0.20;;;;;;;31.04;21.34;98100.66;5095155;28;20044;-94
2021/05/27 11:35:38;;;;;;;0.15;0.15;;;;;;;30.33;20.92;98112.56;5095011;28;20110;-94
2021/05/27 11:38:06;;;;;;;0.10;0.10;;;;;;;30.46;20.74;98110.31;5093967;28;20035;-93
2021/05/27 11:40:34;;;;;;;0.35;0.20;;;;;;;29.83;21.13;98108.34;5094754;28;20024;-92
2021/05/27 11:43:01;;;;;;;2.28;0.20;;;;;;;30.43;20.75;98105.63;5094788;28;20036;-91